Saint-Prosper-De-Dorchester, Canada
Current Conditions -  °F | °C
As of 3:00 PM on Friday 19 Dec 2014 (Local Time) from CYQB Reporting Station
Few Clouds Few Clouds  
Wind Chill: 11°   Ceiling: Unl
Heat Index: 23°   Visibility: 30mi
Dew Point: 16°   Wind: 14mph
Humidity: 74%   Direction: 230°SW
Pressure: 30.04"   Gusts: NA
Location:  46.2°N, 70.48°W
Report Text: CYQB 192000Z 23012KT 30SM FEW030 M05/M09 A3004 RMK SC1 SC TR SLP179
Loading
Personal Weather Stations






























Interactive Weather Map New forecast layout! Learn more

10-Day Weather Forecast

Advertisements
Track Severe Weather on mobile